Time;durP1;ratioP1;P1;durP2;ratioP2;P2;SDS_P1;SDS_P2;PMS_P1;PMS_P2;Temp;Humidity;BMP_temperature;BMP_pressure;BME280_temperature;BME280_humidity;BME280_pressure;Samples;Min_cycle;Max_cycle;Signal;HPM_P1;HPM_P2
2021/11/08 00:00:12;;;;;;;4.97;2.72;;;;;;;5.52;100.00;96191.94;5051479;28;24426;-75
2021/11/08 00:02:40;;;;;;;5.25;2.58;;;;;;;5.62;100.00;96179.59;5050654;28;24978;-76
2021/11/08 00:05:07;;;;;;;7.65;2.55;;;;;;;5.50;100.00;96192.00;5051486;28;24423;-76
2021/11/08 00:07:35;;;;;;;7.97;3.03;;;;;;;5.39;100.00;96193.28;5051528;28;24438;-75
2021/11/08 00:10:01;;;;;;;7.60;3.13;;;;;;;5.44;100.00;96192.22;5051428;28;24534;-75
2021/11/08 00:12:28;;;;;;;5.63;3.03;;;;;;;5.50;100.00;96199.72;5051283;28;24450;-75
2021/11/08 00:14:57;;;;;;;7.93;3.10;;;;;;;5.54;100.00;96203.84;5051349;28;24457;-76
2021/11/08 00:17:52;;;;;;;4.90;2.67;;;;;;;5.52;100.00;96197.91;5051395;28;24432;-76
2021/11/08 00:20:25;;;;;;;11.05;3.45;;;;;;;5.41;100.00;96197.47;5051426;28;24423;-75
2021/11/08 00:22:51;;;;;;;8.70;2.90;;;;;;;5.44;100.00;96199.09;5051181;28;24427;-76
2021/11/08 00:25:18;;;;;;;12.15;3.60;;;;;;;5.33;100.00;96202.03;5051325;28;24514;-75
2021/11/08 00:27:45;;;;;;;6.85;3.13;;;;;;;5.27;100.00;96210.81;5050874;28;24936;-76
2021/11/08 00:30:12;;;;;;;16.77;4.00;;;;;;;5.20;100.00;96205.94;5051116;28;24841;-76
2021/11/08 00:32:39;;;;;;;7.47;3.63;;;;;;;5.15;100.00;96207.81;5051177;28;24477;-76
2021/11/08 00:35:07;;;;;;;9.40;3.88;;;;;;;5.10;100.00;96207.97;5050729;28;24423;-76
2021/11/08 00:37:35;;;;;;;13.20;3.78;;;;;;;5.09;100.00;96217.41;5050737;28;24429;-76
2021/11/08 00:40:03;;;;;;;11.32;3.67;;;;;;;5.09;100.00;96222.53;5050975;28;24443;-76
2021/11/08 00:42:30;;;;;;;10.00;3.80;;;;;;;5.07;100.00;96221.75;5050993;28;24488;-76
2021/11/08 00:44:57;;;;;;;12.60;4.00;;;;;;;5.12;100.00;96223.31;5050593;28;24422;-76
2021/11/08 00:47:25;;;;;;;9.65;3.40;;;;;;;5.17;100.00;96229.97;5050805;28;24423;-76
2021/11/08 00:49:52;;;;;;;6.47;3.50;;;;;;;5.20;100.00;96229.06;5050637;28;24469;-76
2021/11/08 00:52:19;;;;;;;6.35;3.00;;;;;;;5.25;100.00;96217.72;5050657;28;24446;-75
2021/11/08 00:54:47;;;;;;;8.68;3.72;;;;;;;5.28;100.00;96211.63;5050422;28;24423;-76
2021/11/08 00:57:18;;;;;;;7.45;3.45;;;;;;;5.30;100.00;96220.97;5050397;28;24427;-75
2021/11/08 00:59:44;;;;;;;8.73;3.80;;;;;;;5.33;100.00;96214.88;5050587;28;24477;-75
2021/11/08 01:02:12;;;;;;;9.52;3.45;;;;;;;5.30;100.00;96205.56;5050529;28;24424;-76
2021/11/08 01:04:41;;;;;;;11.43;3.87;;;;;;;5.19;100.00;96193.97;5050295;28;24438;-76
2021/11/08 01:07:08;;;;;;;14.63;4.20;;;;;;;5.13;100.00;96202.75;5050806;28;24505;-75
2021/11/08 01:09:35;;;;;;;7.45;3.72;;;;;;;5.12;100.00;96210.47;5050434;28;24435;-76
2021/11/08 01:12:03;;;;;;;9.05;3.60;;;;;;;5.12;100.00;96210.47;5050281;28;24448;-76
2021/11/08 01:14:30;;;;;;;9.82;4.38;;;;;;;5.08;100.00;96214.91;5049959;28;24434;-76
2021/11/08 01:16:57;;;;;;;6.38;3.17;;;;;;;4.89;100.00;96212.09;5050206;28;24426;-76
2021/11/08 01:19:27;;;;;;;12.40;4.40;;;;;;;4.84;100.00;96201.97;5050219;28;24426;-75
2021/11/08 01:21:54;;;;;;;7.30;3.83;;;;;;;4.82;100.00;96206.34;5050489;28;24458;-76
2021/11/08 01:24:21;;;;;;;7.68;3.38;;;;;;;4.75;100.00;96214.31;5050211;28;25003;-76
2021/11/08 01:26:48;;;;;;;11.77;4.22;;;;;;;4.70;100.00;96213.59;5050058;28;24526;-76
2021/11/08 01:29:16;;;;;;;10.60;3.58;;;;;;;4.61;100.00;96218.13;5050301;28;24945;-76
2021/11/08 01:31:43;;;;;;;13.02;4.50;;;;;;;4.61;100.00;96219.88;5050017;28;25242;-76
2021/11/08 01:34:10;;;;;;;8.85;3.70;;;;;;;4.72;100.00;96222.09;5050244;28;24427;-76
2021/11/08 01:36:38;;;;;;;4.80;2.40;;;;;;;5.01;100.00;96227.09;5050022;28;24469;-76
2021/11/08 01:39:13;;;;;;;9.63;2.95;;;;;;;5.05;100.00;96220.97;5050325;28;24435;-75
2021/11/08 01:41:41;;;;;;;8.27;3.42;;;;;;;4.89;100.00;96229.22;5050171;28;25188;-76
2021/11/08 01:44:09;;;;;;;7.15;3.42;;;;;;;4.80;100.00;96227.81;5050583;28;24477;-76
2021/11/08 01:46:37;;;;;;;9.68;2.95;;;;;;;4.76;100.00;96224.50;5049744;28;24984;-76
2021/11/08 01:49:04;;;;;;;6.78;2.88;;;;;;;4.70;100.00;96217.00;5050059;28;24494;-76
2021/11/08 01:51:31;;;;;;;9.00;3.58;;;;;;;4.56;100.00;96222.59;5049956;28;25007;-76
2021/11/08 01:53:57;;;;;;;14.30;4.20;;;;;;;4.50;100.00;96221.94;5049958;28;24446;-76
2021/11/08 01:56:24;;;;;;;14.18;3.80;;;;;;;4.35;100.00;96224.09;5049594;28;24431;-76
2021/11/08 01:58:51;;;;;;;9.30;3.95;;;;;;;4.27;100.00;96225.22;5052369;23;24475;-72
2021/11/08 02:01:17;;;;;;;7.20;3.40;;;;;;;4.36;100.00;96222.38;5030298;28;24412;-72
2021/11/08 02:03:45;;;;;;;6.65;2.78;;;;;;;4.43;100.00;96228.16;5030110;28;24422;-74
2021/11/08 02:06:12;;;;;;;9.97;3.83;;;;;;;4.23;100.00;96221.09;5029811;28;24967;-74
2021/11/08 02:08:38;;;;;;;8.43;3.65;;;;;;;4.05;100.00;96214.78;5040375;28;24450;-74
2021/11/08 02:11:06;;;;;;;7.45;3.00;;;;;;;3.97;100.00;96215.00;5050385;28;25010;-74
2021/11/08 02:13:33;;;;;;;7.13;3.30;;;;;;;4.05;100.00;96218.19;5050026;28;24451;-74
2021/11/08 02:16:00;;;;;;;6.70;2.97;;;;;;;4.09;100.00;96217.19;5049683;28;24421;-74
2021/11/08 02:18:26;;;;;;;7.43;3.22;;;;;;;4.10;100.00;96218.03;5049913;28;24624;-74
2021/11/08 02:20:55;;;;;;;6.32;3.45;;;;;;;4.10;100.00;96218.88;5049943;28;24414;-74
2021/11/08 02:23:23;;;;;;;6.85;3.13;;;;;;;4.16;100.00;96217.03;5049980;28;24422;-74
2021/11/08 02:25:53;;;;;;;14.52;3.88;;;;;;;4.01;100.00;96219.16;5051085;28;24430;-74
2021/11/08 02:28:20;;;;;;;5.43;3.35;;;;;;;4.00;100.00;96214.91;5053559;28;24438;-74
2021/11/08 02:30:46;;;;;;;7.55;3.70;;;;;;;3.86;100.00;96217.88;5053686;28;24439;-74
2021/11/08 02:33:17;;;;;;;5.93;3.53;;;;;;;3.70;100.00;96223.47;5053317;28;24978;-74
2021/11/08 02:35:45;;;;;;;5.25;3.50;;;;;;;3.48;100.00;96216.41;5053024;28;24940;-74
2021/11/08 02:38:16;;;;;;;6.20;3.70;;;;;;;3.53;100.00;96211.16;5053078;28;24426;-74
2021/11/08 02:40:43;;;;;;;6.43;3.10;;;;;;;3.62;100.00;96216.84;5053107;28;24415;-74
2021/11/08 02:43:18;;;;;;;5.70;3.28;;;;;;;3.69;100.00;96222.66;5053575;28;24469;-74
2021/11/08 02:45:45;;;;;;;6.35;3.60;;;;;;;3.54;100.00;96216.25;5052938;28;24530;-74
2021/11/08 02:48:12;;;;;;;7.28;3.28;;;;;;;3.64;100.00;96216.81;5053047;28;24781;-74
2021/11/08 02:50:39;;;;;;;10.65;3.35;;;;;;;3.50;100.00;96219.78;5053131;28;24446;-74
2021/11/08 02:53:06;;;;;;;13.07;3.60;;;;;;;3.50;100.00;96206.97;5052893;28;24784;-74
2021/11/08 02:55:34;;;;;;;7.43;3.53;;;;;;;3.59;100.00;96214.38;5052808;28;24415;-74
2021/11/08 02:58:01;;;;;;;4.95;3.00;;;;;;;3.60;100.00;96212.69;5052748;28;24431;-74
2021/11/08 03:00:30;;;;;;;5.80;3.35;;;;;;;3.55;100.00;96206.81;5052905;28;24419;-74
2021/11/08 03:02:57;;;;;;;4.18;2.25;;;;;;;3.45;100.00;96213.94;5052720;28;24415;-74
2021/11/08 03:05:31;;;;;;;3.53;2.20;;;;;;;3.51;100.00;96210.34;5052185;28;24932;-74
2021/11/08 03:07:58;;;;;;;5.97;2.47;;;;;;;3.44;100.00;96206.28;5052813;28;24431;-74
2021/11/08 03:10:26;;;;;;;3.70;2.17;;;;;;;3.48;100.00;96203.59;5052649;28;24419;-74
2021/11/08 03:12:57;;;;;;;3.73;2.17;;;;;;;3.50;100.00;96216.38;5052542;28;24426;-74
2021/11/08 03:18:11;;;;;;;4.27;2.20;;;;;;;3.22;100.00;96227.34;5051438;28;24999;-73
2021/11/08 03:20:38;;;;;;;2.92;1.80;;;;;;;3.18;100.00;96228.31;5052388;28;24974;-73
2021/11/08 03:23:06;;;;;;;4.07;1.80;;;;;;;3.19;100.00;96226.59;5052561;28;24519;-73
2021/11/08 03:25:41;;;;;;;3.63;2.00;;;;;;;3.17;100.00;96230.91;5052193;28;25010;-73
2021/11/08 03:28:10;;;;;;;3.60;1.88;;;;;;;2.84;100.00;96229.19;5052142;28;24411;-73
2021/11/08 03:30:40;;;;;;;14.20;2.55;;;;;;;2.92;100.00;96239.22;5052295;28;24466;-73
2021/11/08 03:33:12;;;;;;;12.43;2.00;;;;;;;2.96;100.00;96230.59;5052487;28;24419;-73
2021/11/08 03:35:39;;;;;;;4.20;2.20;;;;;;;2.71;100.00;96232.94;5051775;28;25235;-73
2021/11/08 03:38:08;;;;;;;14.68;2.08;;;;;;;2.71;100.00;96237.19;5052067;28;24861;-73
2021/11/08 03:40:37;;;;;;;3.72;2.30;;;;;;;2.59;100.00;96236.59;5051937;28;24419;-73
2021/11/08 03:43:06;;;;;;;8.10;3.70;;;;;;;2.36;100.00;96234.59;5052159;28;24540;-73
2021/11/08 03:45:35;;;;;;;4.72;3.50;;;;;;;2.46;100.00;96242.91;5051832;28;24508;-73
2021/11/08 03:48:01;;;;;;;5.85;2.97;;;;;;;2.55;100.00;96244.41;5051950;28;24461;-73
2021/11/08 03:50:28;;;;;;;6.60;3.65;;;;;;;2.47;100.00;96246.28;5052102;28;24434;-73
2021/11/08 03:52:55;;;;;;;7.45;3.55;;;;;;;2.47;100.00;96251.41;5051739;28;24443;-73
2021/11/08 03:55:22;;;;;;;4.47;2.92;;;;;;;2.53;100.00;96253.84;5051383;28;24418;-73
2021/11/08 03:57:50;;;;;;;7.40;2.92;;;;;;;2.48;100.00;96261.59;5051516;28;24975;-73
2021/11/08 04:00:18;;;;;;;5.93;2.83;;;;;;;2.57;100.00;96263.13;5051943;28;24422;-73
2021/11/08 04:02:47;;;;;;;4.65;2.20;;;;;;;2.45;100.00;96259.13;5051741;28;24438;-73
2021/11/08 04:05:16;;;;;;;5.40;2.00;;;;;;;2.42;100.00;96264.31;5051293;28;24411;-73
2021/11/08 04:07:43;;;;;;;3.83;2.20;;;;;;;2.19;100.00;96259.72;5051359;28;24442;-73
2021/11/08 04:10:16;;;;;;;4.50;2.45;;;;;;;2.07;100.00;96265.91;5051328;28;24423;-73
2021/11/08 04:12:43;;;;;;;4.95;2.53;;;;;;;2.12;100.00;96263.28;5051364;28;24988;-73
2021/11/08 04:15:11;;;;;;;9.45;2.50;;;;;;;2.15;100.00;96261.50;5051236;28;24460;-73
2021/11/08 04:17:43;;;;;;;5.30;2.97;;;;;;;2.18;100.00;96268.22;5051503;28;24418;-73
2021/11/08 04:20:12;;;;;;;5.20;2.83;;;;;;;2.21;100.00;96268.16;5051784;28;24534;-73
2021/11/08 04:22:39;;;;;;;11.80;3.10;;;;;;;2.25;100.00;96276.63;5051258;28;24503;-73
2021/11/08 04:25:07;;;;;;;7.97;3.58;;;;;;;2.33;100.00;96270.44;5051042;28;24427;-73
2021/11/08 04:27:37;;;;;;;11.63;2.90;;;;;;;2.32;100.00;96279.00;5051251;28;24855;-73
2021/11/08 04:30:06;;;;;;;24.80;3.80;;;;;;;2.41;100.00;96283.06;5051076;28;24426;-73
2021/11/08 04:32:37;;;;;;;14.30;2.90;;;;;;;2.47;100.00;96274.41;5051324;28;24546;-73
2021/11/08 04:35:10;;;;;;;11.95;3.17;;;;;;;2.52;100.00;96275.16;5050689;28;24424;-73
2021/11/08 04:37:56;;;;;;;34.03;3.45;;;;;;;2.56;100.00;96275.06;5050397;28;21421;-73
2021/11/08 04:40:27;;;;;;;15.35;2.47;;;;;;;2.67;100.00;96283.31;5051040;28;24484;-74
2021/11/08 04:43:00;;;;;;;7.63;3.00;;;;;;;2.57;100.00;96281.84;5051072;28;24415;-72
2021/11/08 04:45:52;;;;;;;21.80;2.88;;;;;;;2.50;100.00;96285.41;5050448;28;24430;-73
2021/11/08 04:48:38;;;;;;;29.15;3.42;;;;;;;2.48;100.00;96286.31;5050446;28;24431;-72
2021/11/08 04:51:08;;;;;;;22.30;1.95;;;;;;;2.26;100.00;96280.84;5050835;28;24438;-74
2021/11/08 04:53:42;;;;;;;37.72;1.83;;;;;;;2.17;100.00;96276.78;5050770;28;24455;-74
2021/11/08 05:32:00;;;;;;;20.05;1.80;;;;;;;1.77;100.00;96295.50;5050184;28;24443;-73
2021/11/08 05:34:26;;;;;;;8.07;1.58;;;;;;;1.84;100.00;96301.31;5050114;28;24426;-73
2021/11/08 05:36:53;;;;;;;9.38;1.50;;;;;;;1.86;100.00;96307.25;5050235;28;24412;-74
2021/11/08 05:39:19;;;;;;;5.10;1.60;;;;;;;1.79;100.00;96308.25;5050087;28;25064;-74
2021/11/08 05:41:48;;;;;;;3.72;1.48;;;;;;;1.64;100.00;96310.22;5050339;28;24416;-74
2021/11/08 05:44:14;;;;;;;7.88;1.38;;;;;;;1.42;100.00;96304.66;5050296;28;25006;-73
2021/11/08 05:46:41;;;;;;;9.85;1.52;;;;;;;1.43;100.00;96310.63;5050064;28;24419;-74
2021/11/08 05:49:07;;;;;;;4.68;1.35;;;;;;;1.61;100.00;96310.28;5050052;28;24423;-74
2021/11/08 05:51:34;;;;;;;7.55;1.30;;;;;;;1.66;100.00;96312.72;5050117;28;24442;-74
2021/11/08 05:54:01;;;;;;;1.90;1.10;;;;;;;1.41;100.00;96310.66;5049819;28;24434;-74
2021/11/08 05:56:31;;;;;;;11.00;1.17;;;;;;;1.26;100.00;96312.63;5049635;28;24435;-74
2021/11/08 05:59:12;;;;;;;4.45;1.80;;;;;;;1.38;100.00;96305.59;5049981;28;24439;-74
2021/11/08 06:51:04;;;;;;;14.73;2.00;;;;;;;0.93;100.00;96354.00;5052549;28;24430;-76
2021/11/08 06:53:32;;;;;;;11.27;1.83;;;;;;;1.04;100.00;96358.06;5053000;28;24454;-75
2021/11/08 06:55:59;;;;;;;11.02;2.00;;;;;;;1.11;100.00;96352.00;5052368;28;24442;-75
2021/11/08 06:58:27;;;;;;;13.73;1.95;;;;;;;1.06;100.00;96352.06;5052862;28;24527;-75
2021/11/08 07:00:55;;;;;;;21.83;1.88;;;;;;;1.05;100.00;96358.03;5052436;28;24419;-75
2021/11/08 07:03:24;;;;;;;4.88;1.77;;;;;;;1.14;100.00;96360.44;5052852;28;24415;-75
2021/11/08 07:05:51;;;;;;;10.93;1.45;;;;;;;1.08;100.00;96359.72;5052478;28;24422;-76
2021/11/08 07:08:17;;;;;;;7.85;1.67;;;;;;;1.21;100.00;96363.72;5052643;28;24422;-76
2021/11/08 07:10:45;;;;;;;24.98;1.90;;;;;;;1.21;100.00;96366.28;5052207;28;24423;-76
2021/11/08 07:13:12;;;;;;;19.92;2.10;;;;;;;1.54;100.00;96364.03;5052002;28;24447;-76
2021/11/08 07:15:40;;;;;;;20.13;1.85;;;;;;;1.64;100.00;96365.56;5052270;28;24979;-76
2021/11/08 07:18:07;;;;;;;7.00;1.42;;;;;;;1.47;100.00;96365.00;5052451;28;24438;-75
2021/11/08 07:20:35;;;;;;;15.07;2.53;;;;;;;1.24;100.00;96373.91;5052838;28;24423;-75
2021/11/08 07:23:01;;;;;;;19.67;1.63;;;;;;;1.32;100.00;96376.31;5052699;28;24423;-75
2021/11/08 07:25:28;;;;;;;15.05;1.83;;;;;;;1.29;100.00;96373.81;5052032;28;24773;-74
2021/11/08 07:27:54;;;;;;;19.23;1.83;;;;;;;1.28;100.00;96384.91;5052203;28;24430;-75
2021/11/08 07:30:22;;;;;;;13.82;1.70;;;;;;;1.26;100.00;96386.63;5052114;28;24425;-75
2021/11/08 07:32:48;;;;;;;11.90;1.85;;;;;;;1.39;100.00;96385.56;5052191;28;25004;-75
2021/11/08 07:35:15;;;;;;;7.13;1.60;;;;;;;1.56;100.00;96388.66;5051877;28;24959;-75
2021/11/08 07:37:43;;;;;;;7.55;1.60;;;;;;;1.77;100.00;96386.59;5052146;28;24426;-76
2021/11/08 07:40:11;;;;;;;18.88;1.85;;;;;;;1.59;100.00;96383.47;5052132;28;24473;-75
2021/11/08 07:42:37;;;;;;;11.23;1.70;;;;;;;1.55;100.00;96381.03;5051836;28;24455;-75
2021/11/08 07:45:05;;;;;;;39.78;2.45;;;;;;;1.53;100.00;96391.28;5051943;28;24423;-75
2021/11/08 07:47:31;;;;;;;17.92;2.50;;;;;;;1.47;100.00;96390.53;5051912;28;24422;-76
2021/11/08 07:49:58;;;;;;;13.52;2.20;;;;;;;1.89;100.00;96396.56;5051965;28;24414;-75
2021/11/08 07:52:24;;;;;;;9.18;2.03;;;;;;;1.68;100.00;96397.81;5051714;28;24804;-75
2021/11/08 07:54:52;;;;;;;14.40;1.90;;;;;;;1.70;100.00;96393.50;5051371;28;24427;-75
2021/11/08 07:57:19;;;;;;;7.70;1.65;;;;;;;1.67;100.00;96391.03;5051520;28;24819;-78
2021/11/08 07:59:45;;;;;;;22.20;2.65;;;;;;;1.96;100.00;96394.75;5065304;23;24490;-76
2021/11/08 08:02:12;;;;;;;15.87;2.20;;;;;;;1.99;100.00;96399.81;5051820;28;24481;-76
2021/11/08 08:04:39;;;;;;;19.17;2.72;;;;;;;2.01;100.00;96385.28;5051545;28;24438;-75
2021/11/08 08:07:06;;;;;;;14.35;2.40;;;;;;;1.93;100.00;96399.06;5052402;28;24425;-76
2021/11/08 08:09:33;;;;;;;5.95;2.38;;;;;;;1.93;100.00;96395.66;5066330;28;24780;-76
2021/11/08 08:12:01;;;;;;;12.30;2.70;;;;;;;1.69;100.00;96387.56;5071061;28;24446;-76
2021/11/08 08:14:28;;;;;;;22.63;2.80;;;;;;;1.62;100.00;96390.25;5071253;28;24411;-76
2021/11/08 08:16:55;;;;;;;27.05;2.88;;;;;;;1.65;100.00;96395.31;5071443;28;24434;-76
2021/11/08 08:19:22;;;;;;;42.10;3.93;;;;;;;1.64;100.00;96397.03;5071335;28;24423;-76
2021/11/08 08:21:49;;;;;;;29.70;2.83;;;;;;;1.76;100.00;96385.75;5071125;28;24457;-76
2021/11/08 08:24:15;;;;;;;36.95;3.10;;;;;;;1.72;100.00;96390.94;5070315;28;24419;-76
2021/11/08 08:26:43;;;;;;;52.50;3.40;;;;;;;1.85;100.00;96377.91;5071053;28;24442;-76
2021/11/08 08:29:13;;;;;;;28.30;3.03;;;;;;;1.94;100.00;96389.69;5071161;28;24430;-76
2021/11/08 08:31:43;;;;;;;36.00;3.40;;;;;;;1.85;100.00;96389.84;5071088;28;24422;-76
2021/11/08 08:34:11;;;;;;;24.40;3.38;;;;;;;1.93;100.00;96385.44;5071026;28;24967;-75
2021/11/08 08:36:39;;;;;;;95.35;5.65;;;;;;;2.03;100.00;96386.09;5069439;28;24415;-74
2021/11/08 08:39:07;;;;;;;81.35;5.40;;;;;;;2.13;100.00;96395.28;5070711;28;24789;-74
2021/11/08 08:41:34;;;;;;;91.50;6.00;;;;;;;2.24;100.00;96393.34;5070888;28;24798;-74
2021/11/08 08:44:01;;;;;;;46.35;5.07;;;;;;;1.89;100.00;96401.69;5069989;28;24987;-74
2021/11/08 08:46:29;;;;;;;40.53;4.30;;;;;;;2.25;100.00;96399.28;5070242;28;24796;-74
2021/11/08 08:48:58;;;;;;;42.88;4.88;;;;;;;2.41;100.00;96386.19;5070290;28;24442;-73
2021/11/08 08:51:24;;;;;;;32.95;5.22;;;;;;;2.42;100.00;96392.13;5070478;28;24422;-74
2021/11/08 08:53:51;;;;;;;44.10;5.53;;;;;;;2.35;100.00;96386.28;5070721;28;24442;-74
2021/11/08 08:56:18;;;;;;;35.40;5.78;;;;;;;2.26;100.00;96399.25;5070279;28;24462;-74
2021/11/08 08:58:45;;;;;;;23.00;5.60;;;;;;;2.29;100.00;96391.53;5070512;28;24963;-74
2021/11/08 09:01:11;;;;;;;22.67;5.22;;;;;;;2.35;100.00;96396.53;5070362;28;24431;-74
2021/11/08 09:03:39;;;;;;;32.17;4.20;;;;;;;2.24;100.00;96397.63;5070412;28;24856;-75
2021/11/08 09:06:06;;;;;;;25.33;4.70;;;;;;;2.35;100.00;96400.78;5071828;28;24434;-75
2021/11/08 09:08:35;;;;;;;33.42;4.70;;;;;;;2.50;100.00;96386.84;5071533;28;24951;-76
2021/11/08 09:11:01;;;;;;;25.23;4.45;;;;;;;2.40;100.00;96381.91;5071419;28;24437;-76
2021/11/08 09:13:28;;;;;;;21.17;4.63;;;;;;;2.65;100.00;96387.34;5070955;28;25064;-77
2021/11/08 09:15:55;;;;;;;13.55;5.40;;;;;;;2.74;100.00;96381.19;5071173;28;24430;-76
2021/11/08 09:18:21;;;;;;;10.52;4.70;;;;;;;3.04;100.00;96384.78;5071490;28;24792;-75
2021/11/08 09:20:50;;;;;;;15.27;4.83;;;;;;;3.38;100.00;96387.38;5070185;28;25117;-76
2021/11/08 09:23:16;;;;;;;9.90;5.00;;;;;;;3.70;100.00;96387.44;5071314;28;25002;-77
2021/11/08 09:25:43;;;;;;;12.85;5.38;;;;;;;3.54;100.00;96387.81;5070888;28;24418;-76
2021/11/08 09:28:10;;;;;;;11.60;5.18;;;;;;;3.40;100.00;96389.88;5071457;28;24433;-77
2021/11/08 09:30:40;;;;;;;10.93;5.57;;;;;;;3.46;100.00;96384.63;5071305;28;24446;-76
2021/11/08 09:33:07;;;;;;;23.55;15.90;;;;;;;3.69;100.00;96389.16;5071930;28;24505;-74
2021/11/08 09:35:37;;;;;;;58.80;39.45;;;;;;;3.83;100.00;96399.88;5077893;28;24423;-76
2021/11/08 09:38:09;;;;;;;17.95;13.50;;;;;;;4.11;100.00;96399.97;5078457;28;24529;-76
2021/11/08 09:40:37;;;;;;;13.95;9.23;;;;;;;4.50;100.00;96396.34;5077873;28;24834;-75
2021/11/08 09:43:08;;;;;;;12.88;7.75;;;;;;;4.73;100.00;96398.25;5078202;28;24419;-77
2021/11/08 09:45:34;;;;;;;11.38;7.60;;;;;;;5.05;100.00;96399.84;5078617;28;24411;-77
2021/11/08 09:48:02;;;;;;;10.95;7.55;;;;;;;5.26;100.00;96408.59;5078411;28;24451;-75
2021/11/08 09:50:32;;;;;;;11.43;7.28;;;;;;;5.46;100.00;96400.25;5077601;28;24430;-76
2021/11/08 09:53:01;;;;;;;11.40;7.03;;;;;;;5.72;100.00;96400.22;5078084;28;24804;-76
2021/11/08 09:55:29;;;;;;;7.95;5.65;;;;;;;6.02;100.00;96402.69;5077214;28;24453;-73
2021/11/08 09:57:56;;;;;;;8.57;6.18;;;;;;;6.45;100.00;96396.00;5076775;28;24427;-71
2021/11/08 10:00:26;;;;;;;12.80;6.15;;;;;;;6.51;100.00;96399.19;5076561;28;24426;-71
2021/11/08 10:02:56;;;;;;;12.75;5.68;;;;;;;6.96;100.00;96400.94;5077141;28;24433;-71
2021/11/08 10:05:26;;;;;;;16.80;5.22;;;;;;;7.02;100.00;96399.88;5076971;28;24430;-71
2021/11/08 10:07:53;;;;;;;9.70;6.20;;;;;;;6.73;100.00;96408.69;5077537;28;24453;-72
2021/11/08 10:10:20;;;;;;;10.95;6.88;;;;;;;6.55;100.00;96411.03;5076105;28;24846;-71
2021/11/08 10:12:49;;;;;;;10.77;5.47;;;;;;;6.64;100.00;96412.47;5077170;28;24458;-72
2021/11/08 10:15:18;;;;;;;19.27;5.32;;;;;;;7.08;100.00;96409.09;5077082;28;24499;-73
2021/11/08 10:17:44;;;;;;;16.17;5.97;;;;;;;7.38;100.00;96409.63;5075365;28;24430;-73
2021/11/08 10:20:18;;;;;;;16.73;5.00;;;;;;;7.64;100.00;96393.09;5075504;28;24441;-72
2021/11/08 10:22:45;;;;;;;19.75;5.78;;;;;;;8.06;100.00;96402.53;5076941;28;24433;-71
2021/11/08 10:25:15;;;;;;;14.73;5.60;;;;;;;8.09;100.00;96403.25;5070502;28;24993;-72
2021/11/08 10:27:44;;;;;;;14.68;4.93;;;;;;;8.14;100.00;96398.72;5077427;28;24791;-72
2021/11/08 10:30:26;;;;;;;13.82;5.85;;;;;;;7.71;100.00;96391.94;5076261;28;24457;-73
2021/11/08 10:33:13;;;;;;;12.80;6.03;;;;;;;7.77;100.00;96394.28;5077685;28;24454;-72
2021/11/08 10:35:42;;;;;;;16.65;5.10;;;;;;;7.97;100.00;96391.72;5077539;28;24488;-72
2021/11/08 10:38:11;;;;;;;13.10;4.63;;;;;;;7.91;100.00;96391.97;5077784;28;24447;-72
2021/11/08 10:40:44;;;;;;;12.97;4.87;;;;;;;8.72;100.00;96385.00;5076992;28;24431;-72
2021/11/08 10:43:11;;;;;;;16.85;4.50;;;;;;;8.82;100.00;96377.66;5077332;28;24426;-73
2021/11/08 10:45:48;;;;;;;15.80;5.87;;;;;;;8.39;96.76;96380.44;5075481;28;24539;-72
2021/11/08 10:48:19;;;;;;;13.90;4.18;;;;;;;8.07;97.96;96380.97;5072339;28;24442;-72
2021/11/08 10:50:47;;;;;;;10.90;4.18;;;;;;;8.33;100.00;96385.84;5069634;28;24485;-72
2021/11/08 10:53:14;;;;;;;15.88;4.32;;;;;;;8.26;98.10;96407.66;5073474;28;24470;-72
2021/11/08 10:55:41;;;;;;;14.67;4.53;;;;;;;8.56;93.09;96396.91;5071894;28;24446;-73
2021/11/08 10:58:09;;;;;;;12.27;4.32;;;;;;;8.65;95.74;96401.69;5070935;28;24430;-72
2021/11/08 11:00:48;;;;;;;16.00;4.30;;;;;;;8.70;95.87;96405.72;5067799;28;24431;-72
2021/11/08 11:03:15;;;;;;;14.60;4.40;;;;;;;9.01;92.79;96399.19;5074645;28;24411;-72
2021/11/08 11:05:43;;;;;;;15.20;4.20;;;;;;;8.63;91.32;96395.75;5073903;28;24435;-73
2021/11/08 11:08:14;;;;;;;10.98;3.47;;;;;;;8.81;91.76;96394.91;5072976;28;24449;-72
2021/11/08 11:10:43;;;;;;;19.70;4.38;;;;;;;8.76;93.85;96393.47;5072062;28;25031;-72
2021/11/08 11:13:17;;;;;;;21.38;4.43;;;;;;;8.87;92.40;96397.22;5072545;28;24446;-73
2021/11/08 11:15:44;;;;;;;16.25;4.45;;;;;;;8.90;94.57;96394.50;5072538;28;24504;-72
2021/11/08 11:18:13;;;;;;;13.82;4.43;;;;;;;8.85;93.31;96396.44;5070742;28;24423;-72
2021/11/08 11:20:44;;;;;;;13.93;3.90;;;;;;;8.84;91.30;96396.53;5074181;28;24891;-72
2021/11/08 11:23:15;;;;;;;11.25;4.00;;;;;;;8.62;91.26;96388.91;5072238;28;24441;-72
2021/11/08 11:25:50;;;;;;;12.88;4.18;;;;;;;8.76;91.67;96396.88;5072432;28;24430;-72
2021/11/08 11:28:23;;;;;;;15.30;4.80;;;;;;;8.74;89.44;96403.84;5072412;28;24789;-72
2021/11/08 11:30:50;;;;;;;12.00;4.07;;;;;;;8.80;94.75;96403.56;5093616;28;24430;-72
2021/11/08 11:33:20;;;;;;;11.73;4.30;;;;;;;8.65;89.00;96394.78;5092462;28;24442;-73
2021/11/08 11:35:50;;;;;;;15.00;4.25;;;;;;;8.12;90.38;96394.50;5092028;28;24418;-73
2021/11/08 11:38:21;;;;;;;16.83;4.18;;;;;;;8.06;89.13;96389.63;5092462;28;24433;-73
2021/11/08 11:40:59;;;;;;;15.45;4.07;;;;;;;7.89;91.51;96392.91;5070399;28;24418;-72
2021/11/08 11:43:31;;;;;;;13.43;4.53;;;;;;;7.99;93.80;96384.72;5098672;28;24422;-72
2021/11/08 11:45:59;;;;;;;12.95;4.32;;;;;;;8.41;96.21;96378.63;5085541;28;24437;-72
2021/11/08 11:48:29;;;;;;;15.13;4.25;;;;;;;8.72;93.36;96378.09;5103401;27;24441;-72
2021/11/08 11:50:56;;;;;;;13.95;4.30;;;;;;;8.47;91.90;96370.63;5093828;27;24426;-73
2021/11/08 11:53:23;;;;;;;10.70;4.18;;;;;;;8.21;94.71;96370.91;5097870;28;24448;-72
2021/11/08 11:55:50;;;;;;;14.48;4.40;;;;;;;8.28;93.12;96369.72;5094758;28;24430;-72
2021/11/08 11:58:17;;;;;;;19.40;5.20;;;;;;;7.75;97.64;96370.31;5090544;28;24906;-71
2021/11/08 12:00:46;;;;;;;12.50;4.70;;;;;;;7.67;99.07;96370.59;5098720;28;24833;-72
2021/11/08 12:03:12;;;;;;;15.50;4.70;;;;;;;7.63;99.48;96370.81;5101985;28;24437;-72
2021/11/08 12:05:44;;;;;;;14.52;4.95;;;;;;;7.39;100.00;96373.50;5099900;28;24434;-72
2021/11/08 12:08:12;;;;;;;19.45;4.95;;;;;;;7.30;100.00;96368.69;5091616;28;24434;-72
2021/11/08 12:10:46;;;;;;;17.08;5.05;;;;;;;7.47;100.00;96370.59;5091820;28;24871;-72
2021/11/08 12:13:15;;;;;;;14.17;5.17;;;;;;;7.54;100.00;96369.44;5101061;28;24434;-72
2021/11/08 12:15:41;;;;;;;14.05;5.35;;;;;;;7.46;100.00;96371.50;5098521;28;24421;-72
2021/11/08 12:18:12;;;;;;;15.82;5.00;;;;;;;7.33;100.00;96372.91;5111640;28;24795;-71
2021/11/08 12:20:44;;;;;;;14.55;5.25;;;;;;;7.13;100.00;96384.84;5093888;28;24441;-72
2021/11/08 12:23:15;;;;;;;14.18;4.70;;;;;;;7.34;100.00;96372.84;5091223;28;24981;-72
2021/11/08 12:25:44;;;;;;;14.10;4.63;;;;;;;7.22;100.00;96373.31;5090904;28;24421;-72
2021/11/08 12:28:14;;;;;;;23.88;5.28;;;;;;;7.46;100.00;96369.78;5090815;28;24430;-71
2021/11/08 12:30:42;;;;;;;20.20;4.97;;;;;;;7.54;100.00;96371.19;5097815;28;24529;-72
2021/11/08 12:33:23;;;;;;;18.77;4.63;;;;;;;7.65;100.00;96369.00;5111702;28;24528;-71
2021/11/08 12:35:51;;;;;;;12.25;4.70;;;;;;;7.59;100.00;96377.00;5111299;28;24787;-71
2021/11/08 12:38:20;;;;;;;20.37;4.70;;;;;;;7.62;100.00;96371.72;5111349;28;24523;-71
2021/11/08 12:40:47;;;;;;;14.13;4.45;;;;;;;7.60;100.00;96381.22;5100076;28;24432;-72
2021/11/08 12:43:25;;;;;;;13.50;4.43;;;;;;;7.40;100.00;96372.59;5082085;28;24434;-72
2021/11/08 12:45:51;;;;;;;12.00;4.70;;;;;;;7.17;100.00;96380.41;5090912;28;24499;-72
2021/11/08 12:48:18;;;;;;;19.15;5.00;;;;;;;7.54;100.00;96378.94;5090929;28;24422;-72
2021/11/08 12:50:47;;;;;;;17.30;5.05;;;;;;;7.35;100.00;96381.41;5091222;28;24418;-72
2021/11/08 12:53:24;;;;;;;14.02;5.00;;;;;;;7.26;100.00;96377.44;5090984;28;24421;-72
2021/11/08 12:55:52;;;;;;;13.30;4.53;;;;;;;7.66;100.00;96368.94;5090780;28;24414;-72
2021/11/08 12:58:18;;;;;;;12.57;4.28;;;;;;;7.30;99.75;96366.13;5090907;28;24418;-72
2021/11/08 13:00:50;;;;;;;17.42;4.53;;;;;;;7.54;100.00;96364.28;5090754;28;24418;-72
2021/11/08 13:03:17;;;;;;;14.55;4.72;;;;;;;7.41;100.00;96368.25;5090824;28;24475;-72